Time;durP1;ratioP1;P1;durP2;ratioP2;P2;SDS_P1;SDS_P2;PMS_P1;PMS_P2;Temp;Humidity;BMP_temperature;BMP_pressure;BME280_temperature;BME280_humidity;BME280_pressure;Samples;Min_cycle;Max_cycle;Signal;HPM_P1;HPM_P2
2022/07/01 00:01:55;;;;;;;;;;;17.00;99.90;;;;;;4841876;29;20049;-86
2022/07/01 00:04:26;;;;;;;1.95;1.75;;;17.10;99.90;;;;;;4819102;29;20314;-87
2022/07/01 00:07:16;;;;;;;3.42;2.58;;;17.20;99.90;;;;;;4841391;29;20064;-86
2022/07/01 00:09:44;;;;;;;1.40;1.30;;;17.50;99.90;;;;;;4840798;29;20408;-88
2022/07/01 00:12:12;;;;;;;1.80;1.65;;;17.60;99.90;;;;;;4857057;29;20058;-86
2022/07/01 00:14:40;;;;;;;5.15;1.80;;;17.70;99.90;;;;;;4832347;29;20054;-86
2022/07/01 00:17:10;;;;;;;2.03;1.73;;;17.70;99.90;;;;;;4827507;29;20053;-88
2022/07/01 00:19:45;;;;;;;1.63;1.52;;;17.80;99.90;;;;;;4856143;29;20042;-88
2022/07/01 00:22:15;;;;;;;2.22;2.03;;;17.80;99.90;;;;;;4841202;29;20045;-89
2022/07/01 00:24:45;;;;;;;6.78;2.85;;;17.80;99.90;;;;;;4842890;29;20391;-88
2022/07/01 00:27:13;;;;;;;2.42;2.22;;;17.80;99.90;;;;;;4842259;29;20510;-86
2022/07/01 00:29:43;;;;;;;2.63;2.25;;;17.70;99.90;;;;;;4855467;29;20061;-85
2022/07/01 00:32:12;;;;;;;9.68;4.13;;;17.70;99.90;;;;;;4842773;29;20049;-86
2022/07/01 00:34:39;;;;;;;2.40;2.22;;;17.80;99.90;;;;;;4855828;29;20046;-84
2022/07/01 00:37:07;;;;;;;11.95;3.70;;;17.70;99.90;;;;;;4842696;29;20054;-85
2022/07/01 00:39:36;;;;;;;3.60;3.13;;;17.70;99.90;;;;;;4841438;29;20076;-88
2022/07/01 00:42:08;;;;;;;4.50;2.65;;;17.70;99.90;;;;;;4841676;29;20046;-84
2022/07/01 00:44:51;;;;;;;5.95;3.25;;;17.60;99.90;;;;;;4856508;29;20642;-85
2022/07/01 00:47:27;;;;;;;4.35;3.10;;;17.60;99.90;;;;;;4840235;29;20050;-85
2022/07/01 00:49:58;;;;;;;3.53;3.17;;;17.50;99.90;;;;;;4840441;29;20038;-85
2022/07/01 00:52:26;;;;;;;4.65;3.03;;;17.50;99.90;;;;;;4842058;29;20053;-87
2022/07/01 00:54:59;;;;;;;14.57;4.40;;;17.50;99.90;;;;;;4841325;29;20411;-83
2022/07/01 00:57:31;;;;;;;6.13;3.63;;;17.50;99.90;;;;;;4842347;29;20060;-86
2022/07/01 01:00:02;;;;;;;10.38;3.67;;;17.50;99.90;;;;;;4840809;29;20327;-88
2022/07/01 01:02:30;;;;;;;6.07;3.15;;;17.60;99.90;;;;;;4855528;29;20404;-88
2022/07/01 01:04:58;;;;;;;3.65;2.97;;;17.50;99.90;;;;;;4841877;29;20049;-84
2022/07/01 01:07:27;;;;;;;4.40;3.25;;;17.50;99.90;;;;;;4841251;29;20046;-83
2022/07/01 01:09:56;;;;;;;5.95;3.97;;;17.60;99.90;;;;;;4840703;29;20069;-86
2022/07/01 01:12:26;;;;;;;10.80;4.35;;;17.50;99.90;;;;;;4838327;29;20054;-84
2022/07/01 01:15:01;;;;;;;8.30;4.75;;;17.60;99.90;;;;;;4855451;29;20045;-87
2022/07/01 01:17:29;;;;;;;3.83;2.97;;;17.60;99.90;;;;;;4855921;29;20058;-85
2022/07/01 01:19:57;;;;;;;5.05;3.17;;;17.50;99.90;;;;;;4837740;29;20050;-87
2022/07/01 01:22:25;;;;;;;10.98;5.07;;;17.50;99.90;;;;;;4822216;29;20051;-86
2022/07/01 01:24:53;;;;;;;3.90;3.30;;;17.50;99.90;;;;;;4837169;29;20058;-85
2022/07/01 01:27:21;;;;;;;5.43;4.57;;;17.40;99.90;;;;;;4837209;29;20075;-84
2022/07/01 01:29:49;;;;;;;7.68;4.15;;;17.40;99.90;;;;;;4823338;29;20380;-86
2022/07/01 01:32:17;;;;;;;4.50;2.95;;;17.40;99.90;;;;;;4828569;29;20052;-87
2022/07/01 01:34:44;;;;;;;4.03;3.72;;;17.30;99.90;;;;;;4840917;29;20088;-88
2022/07/01 01:37:12;;;;;;;8.60;3.95;;;17.30;99.90;;;;;;4841779;29;20801;-86
2022/07/01 01:39:40;;;;;;;5.65;3.55;;;17.30;99.90;;;;;;4824326;29;20128;-84
2022/07/01 01:42:08;;;;;;;4.88;3.60;;;17.20;99.90;;;;;;4854989;29;20105;-86
2022/07/01 01:44:42;;;;;;;20.70;4.20;;;17.30;99.90;;;;;;4855227;29;20496;-85
2022/07/01 01:47:16;;;;;;;5.45;3.35;;;17.20;99.90;;;;;;4839735;29;20045;-83
2022/07/01 01:49:45;;;;;;;3.40;2.85;;;17.20;99.90;;;;;;4840809;29;20897;-85
2022/07/01 01:52:13;;;;;;;2.08;1.52;;;17.20;99.90;;;;;;4841433;29;20050;-83
2022/07/01 01:54:40;;;;;;;3.55;1.92;;;17.20;99.90;;;;;;4840250;29;20030;-83
2022/07/01 01:57:08;;;;;;;2.20;1.80;;;17.20;99.90;;;;;;4840567;29;20054;-86
2022/07/01 01:59:36;;;;;;;5.82;2.10;;;17.30;99.90;;;;;;4840589;29;20057;-84
2022/07/01 02:02:07;;;;;;;5.90;2.20;;;17.30;99.90;;;;;;4840531;29;20053;-87
2022/07/01 02:04:35;;;;;;;1.67;1.58;;;17.20;99.90;;;;;;4854884;29;20396;-86
2022/07/01 02:07:04;;;;;;;1.98;1.48;;;17.20;99.90;;;;;;4843654;29;20076;-85
2022/07/01 02:09:32;;;;;;;2.20;2.00;;;17.10;99.90;;;;;;4839793;29;20393;-84
2022/07/01 02:12:00;;;;;;;1.45;1.35;;;17.00;99.90;;;;;;4841430;29;20412;-87
2022/07/01 02:15:12;;;;;;;1.35;1.25;;;17.00;99.90;;;;;;4859006;29;20049;-87
2022/07/01 02:17:40;;;;;;;5.47;1.02;;;16.90;99.90;;;;;;4840653;29;20054;-87
2022/07/01 02:20:15;;;;;;;4.40;1.40;;;16.90;99.90;;;;;;4849761;29;20054;-85
2022/07/01 02:22:47;;;;;;;1.13;1.02;;;16.70;99.90;;;;;;4839933;29;20042;-86
2022/07/01 02:25:15;;;;;;;3.83;1.30;;;16.80;99.90;;;;;;4842001;29;20054;-86
2022/07/01 02:27:43;;;;;;;1.20;0.93;;;16.70;99.90;;;;;;4827839;29;20046;-83
2022/07/01 02:30:11;;;;;;;1.00;1.00;;;16.60;99.90;;;;;;4858435;29;20049;-84
2022/07/01 02:32:39;;;;;;;1.10;1.00;;;16.60;99.90;;;;;;4845125;29;20073;-84
2022/07/01 02:35:07;;;;;;;1.75;1.05;;;16.60;99.90;;;;;;4844082;29;20045;-85
2022/07/01 02:37:36;;;;;;;1.85;0.80;;;16.50;99.90;;;;;;4834988;29;20389;-85
2022/07/01 02:40:04;;;;;;;3.45;1.55;;;16.40;99.90;;;;;;4830485;29;20046;-85
2022/07/01 02:42:35;;;;;;;1.05;1.02;;;16.50;99.90;;;;;;4844564;29;20050;-85
2022/07/01 02:45:10;;;;;;;1.05;1.05;;;16.40;99.90;;;;;;4844463;29;20053;-86
2022/07/01 02:47:39;;;;;;;5.63;1.10;;;16.40;99.90;;;;;;4842552;29;20492;-84
2022/07/01 02:50:12;;;;;;;0.90;0.90;;;16.50;99.90;;;;;;4857661;29;20522;-84
2022/07/01 02:52:51;;;;;;;1.92;0.88;;;16.50;99.90;;;;;;4844452;29;20567;-88
2022/07/01 02:55:19;;;;;;;1.58;0.82;;;16.50;99.90;;;;;;4843150;29;20050;-84
2022/07/01 02:57:51;;;;;;;1.45;0.70;;;16.50;99.90;;;;;;4843271;29;20721;-87
2022/07/01 03:00:21;;;;;;;0.90;0.90;;;16.50;99.90;;;;;;4854087;29;20061;-85
2022/07/01 03:02:49;;;;;;;5.65;1.23;;;16.50;99.90;;;;;;4844007;29;20512;-87
2022/07/01 03:05:17;;;;;;;1.92;0.90;;;16.50;99.90;;;;;;4843174;29;20059;-86
2022/07/01 03:07:46;;;;;;;1.30;1.20;;;16.60;99.90;;;;;;4842645;29;20060;-84
2022/07/01 03:10:14;;;;;;;0.93;0.93;;;16.60;99.90;;;;;;4842877;29;20852;-87
2022/07/01 03:12:42;;;;;;;0.90;0.90;;;16.60;99.90;;;;;;4858217;29;20046;-85
2022/07/01 03:15:12;;;;;;;1.58;1.02;;;16.60;99.90;;;;;;4842690;29;20044;-84
2022/07/01 03:17:42;;;;;;;1.55;1.10;;;16.70;99.90;;;;;;4844033;29;20061;-86
2022/07/01 03:20:13;;;;;;;1.25;1.17;;;16.60;99.90;;;;;;4837017;29;20050;-85
2022/07/01 03:22:42;;;;;;;;;;;16.60;99.90;;;;;;4825728;29;20046;-85
2022/07/01 03:25:10;;;;;;;0.80;0.80;;;16.60;99.90;;;;;;4857399;29;19924;-85
2022/07/01 03:27:44;;;;;;;0.68;0.68;;;16.60;99.90;;;;;;4843697;29;20519;-83
2022/07/01 03:30:14;;;;;;;0.60;0.60;;;16.60;99.90;;;;;;4841830;29;20054;-84
2022/07/01 03:32:42;;;;;;;0.90;0.90;;;16.60;99.90;;;;;;4843596;29;20073;-84
2022/07/01 03:37:57;;;;;;;0.82;0.70;;;16.60;99.90;;;;;;4841191;29;20049;-85
2022/07/01 03:40:25;;;;;;;0.93;0.80;;;16.60;99.90;;;;;;4842000;29;20053;-85
2022/07/01 03:42:53;;;;;;;0.80;0.80;;;16.60;99.90;;;;;;4856700;29;20060;-88
2022/07/01 03:45:21;;;;;;;1.05;0.90;;;16.60;99.90;;;;;;4842618;29;20050;-84
2022/07/01 03:47:50;;;;;;;0.82;0.77;;;16.60;99.90;;;;;;4841728;29;20046;-86
2022/07/01 03:50:21;;;;;;;0.70;0.70;;;16.60;99.90;;;;;;4842529;29;20049;-84
2022/07/01 03:54:29;;;;;;;1.05;1.05;;;16.50;99.90;;;;;;4842105;29;20511;-85
2022/07/01 03:55:50;;;;;;;3.80;1.52;;;16.50;99.90;;;;;;4842289;29;20412;-85
2022/07/01 03:58:50;;;;;;;1.23;1.13;;;16.50;99.90;;;;;;4856011;29;20045;-85
2022/07/01 04:01:38;;;;;;;3.45;1.90;;;16.50;99.90;;;;;;4840714;29;20046;-85
2022/07/01 04:04:06;;;;;;;0.73;0.63;;;16.50;99.90;;;;;;4841639;29;20547;-86
2022/07/01 04:06:35;;;;;;;1.02;1.02;;;16.50;99.90;;;;;;4841084;29;20050;-84
2022/07/01 04:09:04;;;;;;;0.85;0.85;;;16.60;99.90;;;;;;4841523;29;20400;-87
2022/07/01 04:11:37;;;;;;;2.45;1.10;;;16.60;99.90;;;;;;4826224;29;20046;-85
2022/07/01 04:14:05;;;;;;;1.20;1.10;;;16.60;99.90;;;;;;4842259;29;20117;-85
2022/07/01 04:16:33;;;;;;;1.10;1.00;;;16.70;99.90;;;;;;4842728;29;20760;-86
2022/07/01 04:19:01;;;;;;;4.55;1.17;;;16.70;99.90;;;;;;4825482;29;20054;-85
2022/07/01 04:24:18;;;;;;;1.00;0.90;;;16.70;99.90;;;;;;4841304;29;20496;-85
2022/07/01 04:26:46;;;;;;;0.73;0.73;;;16.70;99.90;;;;;;4841768;29;20054;-84
2022/07/01 04:29:14;;;;;;;0.65;0.65;;;16.80;99.90;;;;;;4840966;29;20053;-83
2022/07/01 04:31:42;;;;;;;1.38;1.15;;;16.80;99.90;;;;;;4842264;29;20053;-84
2022/07/01 04:34:21;;;;;;;1.17;0.80;;;16.80;99.90;;;;;;4841864;29;20054;-83
2022/07/01 04:37:09;;;;;;;0.70;0.70;;;16.90;99.90;;;;;;4842422;29;20066;-83
2022/07/01 04:39:37;;;;;;;1.38;1.13;;;16.90;99.90;;;;;;4841437;29;20065;-84
2022/07/01 04:42:05;;;;;;;0.80;0.80;;;16.90;99.90;;;;;;4841561;29;20057;-89
2022/07/01 04:44:37;;;;;;;;;;;16.90;99.90;;;;;;4826353;29;20046;-81
2022/07/01 04:47:10;;;;;;;3.00;2.35;;;16.90;99.90;;;;;;4838610;29;19935;-80
2022/07/01 04:49:38;;;;;;;1.67;1.13;;;16.80;99.90;;;;;;4839110;29;20053;-80
2022/07/01 04:52:06;;;;;;;1.65;1.55;;;16.80;99.90;;;;;;4839625;29;20412;-80
2022/07/01 04:54:35;;;;;;;2.47;1.48;;;16.90;99.90;;;;;;4838695;29;20054;-80
2022/07/01 04:57:04;;;;;;;0.70;0.70;;;16.90;99.90;;;;;;4840179;29;20410;-83
2022/07/01 04:59:36;;;;;;;2.33;1.02;;;17.00;99.90;;;;;;4840397;29;20527;-82
2022/07/01 05:02:10;;;;;;;1.13;1.00;;;17.00;99.90;;;;;;4855286;29;20046;-83
2022/07/01 05:04:40;;;;;;;1.10;1.00;;;17.00;99.90;;;;;;4841683;29;20512;-83
2022/07/01 05:07:27;;;;;;;2.10;1.00;;;17.10;99.90;;;;;;4841450;29;20061;-82
2022/07/01 05:09:56;;;;;;;0.63;0.63;;;17.20;99.90;;;;;;4840514;29;20066;-83
2022/07/01 05:12:24;;;;;;;6.68;2.55;;;17.30;99.90;;;;;;4841763;29;20058;-83
2022/07/01 05:14:52;;;;;;;16.25;1.75;;;17.50;99.90;;;;;;4826011;29;20050;-84
2022/07/01 05:21:55;;;;;;;1.13;1.02;;;17.50;99.90;;;;;;4823690;29;20054;-83
2022/07/01 05:22:56;;;;;;;0.95;0.95;;;17.60;99.90;;;;;;4834457;29;20050;-82
2022/07/01 05:25:24;;;;;;;4.85;1.30;;;17.50;99.90;;;;;;4841113;29;20062;-83
2022/07/01 05:27:52;;;;;;;1.13;1.05;;;17.40;99.90;;;;;;4839375;29;20065;-81
2022/07/01 05:30:21;;;;;;;0.90;0.90;;;17.40;99.90;;;;;;4839581;29;20057;-81
2022/07/01 05:32:49;;;;;;;1.70;1.60;;;17.30;99.90;;;;;;4840121;29;20050;-81
2022/07/01 05:35:17;;;;;;;1.65;1.10;;;17.30;99.90;;;;;;4840780;29;20820;-81
2022/07/01 05:37:44;;;;;;;2.92;1.00;;;17.40;99.90;;;;;;4840992;29;20448;-81
2022/07/01 05:40:13;;;;;;;1.75;1.38;;;17.40;99.90;;;;;;4839972;29;20064;-81
2022/07/01 05:42:40;;;;;;;2.50;1.55;;;17.40;99.90;;;;;;4840315;29;20057;-81
2022/07/01 05:45:15;;;;;;;1.30;1.20;;;17.40;99.90;;;;;;4840871;29;20042;-81
2022/07/01 05:47:45;;;;;;;3.17;1.35;;;17.40;99.90;;;;;;4822217;29;20390;-81
2022/07/01 05:50:15;;;;;;;1.45;1.35;;;17.50;99.90;;;;;;4825688;29;20069;-81
2022/07/01 05:52:44;;;;;;;4.13;1.77;;;17.60;99.90;;;;;;4840767;29;20061;-82
2022/07/01 05:55:11;;;;;;;3.10;0.90;;;17.70;99.90;;;;;;4840188;29;20070;-81
2022/07/01 05:57:39;;;;;;;1.38;1.27;;;17.80;99.90;;;;;;4840357;29;20049;-82
2022/07/01 06:00:09;;;;;;;0.82;0.80;;;17.80;99.90;;;;;;4839865;29;20054;-81
2022/07/01 06:02:46;;;;;;;5.95;1.20;;;17.90;99.90;;;;;;4840434;29;20057;-81
2022/07/01 06:05:31;;;;;;;1.75;0.93;;;17.90;99.90;;;;;;4854127;29;20046;-82
2022/07/01 06:07:59;;;;;;;2.88;0.90;;;17.90;99.90;;;;;;4839847;29;20073;-82
2022/07/01 06:10:27;;;;;;;1.70;0.93;;;17.90;99.90;;;;;;4840060;29;20046;-81
2022/07/01 06:12:55;;;;;;;1.17;1.00;;;17.80;99.90;;;;;;4827869;29;20050;-81
2022/07/01 06:15:30;;;;;;;1.10;1.08;;;17.90;99.90;;;;;;4826497;29;21745;-81
2022/07/01 06:17:58;;;;;;;0.82;0.80;;;17.80;99.90;;;;;;4840295;29;20057;-82
2022/07/01 06:20:26;;;;;;;1.10;1.00;;;17.80;99.90;;;;;;4833315;29;20046;-82
2022/07/01 06:22:55;;;;;;;11.05;1.98;;;17.90;99.90;;;;;;4835650;29;20051;-82
2022/07/01 06:25:22;;;;;;;5.85;1.40;;;17.90;99.90;;;;;;4854457;29;20053;-81
2022/07/01 06:27:50;;;;;;;1.00;0.90;;;17.90;99.90;;;;;;4838494;29;20053;-81
2022/07/01 06:30:18;;;;;;;0.95;0.95;;;17.80;99.90;;;;;;4839252;29;20073;-81
2022/07/01 06:32:54;;;;;;;1.90;0.90;;;17.80;99.90;;;;;;4839868;29;20057;-81
2022/07/01 06:35:38;;;;;;;1.20;1.20;;;17.80;99.90;;;;;;4836093;29;20038;-81
2022/07/01 06:38:21;;;;;;;2.63;0.77;;;17.70;99.90;;;;;;4836459;29;20073;-82
2022/07/01 06:43:48;;;;;;;0.50;0.50;;;17.60;99.90;;;;;;4838636;29;20057;-81
2022/07/01 06:46:16;;;;;;;;;;;17.60;99.90;;;;;;4839379;29;20079;-83
2022/07/01 06:48:43;;;;;;;1.05;0.85;;;17.60;99.90;;;;;;4840757;29;19936;-82
2022/07/01 06:51:11;;;;;;;0.90;0.90;;;17.50;99.90;;;;;;4839882;29;20501;-81
2022/07/01 06:53:40;;;;;;;1.02;0.95;;;17.50;99.90;;;;;;4822330;29;20069;-81
2022/07/01 06:56:08;;;;;;;1.15;1.15;;;17.60;99.90;;;;;;4839692;29;20068;-83
2022/07/01 06:58:35;;;;;;;0.93;0.93;;;17.70;99.90;;;;;;4829697;29;20061;-82
2022/07/01 07:01:04;;;;;;;1.02;1.00;;;17.80;99.90;;;;;;4838450;29;20061;-81
2022/07/01 07:03:34;;;;;;;1.90;1.48;;;18.00;99.90;;;;;;4838964;29;20073;-81
2022/07/01 07:06:08;;;;;;;1.13;0.98;;;18.40;99.90;;;;;;4838333;29;20045;-81
2022/07/01 07:08:45;;;;;;;1.52;1.27;;;18.40;99.90;;;;;;4850077;29;20046;-81
2022/07/01 07:11:14;;;;;;;2.63;2.15;;;18.20;99.90;;;;;;4839470;29;20117;-81
2022/07/01 07:13:42;;;;;;;1.13;0.95;;;18.10;99.90;;;;;;4839244;29;20501;-80
2022/07/01 07:16:10;;;;;;;0.82;0.82;;;18.00;99.90;;;;;;4840431;29;20046;-81
2022/07/01 07:18:39;;;;;;;1.15;1.05;;;18.00;99.90;;;;;;4840522;29;20076;-81
2022/07/01 07:21:06;;;;;;;0.80;0.80;;;17.90;99.90;;;;;;4838460;29;20058;-82
2022/07/01 07:23:35;;;;;;;0.85;0.85;;;18.00;99.90;;;;;;4841944;29;20053;-80
2022/07/01 07:26:03;;;;;;;3.22;0.82;;;18.20;99.90;;;;;;4839388;29;20058;-82
2022/07/01 07:28:33;;;;;;;0.65;0.65;;;18.30;99.90;;;;;;4842738;29;20065;-84
2022/07/01 07:31:01;;;;;;;1.15;1.05;;;18.30;99.90;;;;;;4843169;29;20674;-82
2022/07/01 07:33:29;;;;;;;4.18;1.00;;;18.20;99.90;;;;;;4843711;29;20054;-81
2022/07/01 07:35:57;;;;;;;1.65;1.00;;;18.10;99.90;;;;;;4841120;29;20061;-83
2022/07/01 07:38:25;;;;;;;2.22;1.08;;;18.00;99.90;;;;;;4825606;29;20050;-82
2022/07/01 07:40:53;;;;;;;1.08;1.00;;;17.90;99.90;;;;;;4842753;29;20057;-82
2022/07/01 07:43:21;;;;;;;0.90;0.90;;;17.90;99.90;;;;;;4856156;29;20065;-81
2022/07/01 07:45:52;;;;;;;7.70;2.50;;;17.80;99.90;;;;;;4841094;29;20496;-83
2022/07/01 07:48:20;;;;;;;1.20;1.10;;;17.90;99.90;;;;;;4840763;29;20393;-83
2022/07/01 07:50:49;;;;;;;1.00;1.00;;;17.90;99.90;;;;;;4848916;29;20050;-82
2022/07/01 07:53:17;;;;;;;1.98;1.08;;;17.90;99.90;;;;;;4843152;29;20057;-82
2022/07/01 07:55:45;;;;;;;1.55;1.02;;;17.90;99.90;;;;;;4840219;29;20578;-81
2022/07/01 07:58:13;;;;;;;1.23;1.02;;;18.00;99.90;;;;;;4842482;29;20046;-82
2022/07/01 08:00:41;;;;;;;1.20;1.10;;;18.00;99.90;;;;;;4856086;29;20062;-82
2022/07/01 08:03:09;;;;;;;1.58;1.48;;;18.00;99.90;;;;;;4840234;29;20057;-81
2022/07/01 08:05:37;;;;;;;1.55;1.27;;;18.00;99.90;;;;;;4841059;29;20062;-82
2022/07/01 08:08:05;;;;;;;2.85;1.48;;;18.00;99.90;;;;;;4861905;29;20062;-81
2022/07/01 08:10:41;;;;;;;1.27;1.17;;;18.00;99.90;;;;;;4852804;29;20519;-81
2022/07/01 08:13:18;;;;;;;2.25;1.17;;;17.80;99.90;;;;;;4834750;29;20045;-82
2022/07/01 08:15:46;;;;;;;2.05;1.60;;;17.70;99.90;;;;;;4841207;29;20053;-81
2022/07/01 08:18:13;;;;;;;1.35;1.25;;;17.80;99.90;;;;;;4839901;29;20050;-82
2022/07/01 08:20:41;;;;;;;1.17;0.95;;;17.90;99.90;;;;;;4839882;29;20054;-80
2022/07/01 08:23:09;;;;;;;1.10;1.10;;;18.00;99.90;;;;;;4838597;29;20049;-81
2022/07/01 08:25:37;;;;;;;1.10;1.00;;;18.40;99.90;;;;;;4839182;29;20050;-80
2022/07/01 08:28:05;;;;;;;1.42;1.27;;;18.90;99.90;;;;;;4841076;29;20685;-80
2022/07/01 08:30:33;;;;;;;1.00;1.00;;;19.10;99.90;;;;;;4840891;29;20058;-81
2022/07/01 08:33:01;;;;;;;4.18;1.35;;;19.10;99.90;;;;;;4835097;29;20078;-82
2022/07/01 08:35:29;;;;;;;0.82;0.82;;;19.10;99.90;;;;;;4837938;29;20046;-80
2022/07/01 08:37:58;;;;;;;1.88;0.90;;;19.00;99.90;;;;;;4838001;29;20392;-81
2022/07/01 08:40:31;;;;;;;1.75;1.05;;;18.90;99.90;;;;;;4833743;29;20049;-82
2022/07/01 08:43:03;;;;;;;1.13;1.05;;;18.80;99.90;;;;;;4841247;29;20038;-81
2022/07/01 08:45:33;;;;;;;1.10;1.00;;;18.70;99.90;;;;;;4808634;29;20050;-84
2022/07/01 08:48:05;;;;;;;1.65;1.55;;;18.60;99.90;;;;;;4824275;29;20054;-80
2022/07/01 08:50:38;;;;;;;1.20;1.10;;;18.60;99.90;;;;;;4840196;29;20096;-82
2022/07/01 08:53:07;;;;;;;2.17;2.03;;;18.50;99.90;;;;;;4840019;29;20058;-82
2022/07/01 08:58:33;;;;;;;3.00;2.75;;;17.60;99.90;;;;;;4841524;29;20054;-81
2022/07/01 09:01:20;;;;;;;1.92;1.83;;;17.20;99.90;;;;;;4853200;29;20097;-81
2022/07/01 09:03:52;;;;;;;5.85;3.45;;;17.00;99.90;;;;;;4841206;29;20507;-82
2022/07/01 09:06:25;;;;;;;3.42;2.88;;;16.90;99.90;;;;;;4840497;29;20042;-85
2022/07/01 09:08:54;;;;;;;3.38;3.08;;;16.80;99.90;;;;;;4832508;29;20073;-82
2022/07/01 09:11:26;;;;;;;3.42;3.13;;;16.70;99.90;;;;;;4823285;29;20054;-81
2022/07/01 09:14:12;;;;;;;5.25;3.95;;;16.30;99.90;;;;;;4840546;29;20045;-79
2022/07/01 09:16:59;;;;;;;1.85;1.75;;;15.90;99.90;;;;;;4852929;29;20046;-81
2022/07/01 09:19:32;;;;;;;3.55;2.03;;;15.30;99.90;;;;;;4840295;29;20050;-82
2022/07/01 09:22:02;;;;;;;1.20;1.10;;;14.70;99.90;;;;;;4841180;29;20838;-83
2022/07/01 09:24:39;;;;;;;5.65;1.42;;;14.20;99.90;;;;;;4855519;29;20473;-82
2022/07/01 09:27:16;;;;;;;1.30;1.20;;;13.90;99.90;;;;;;4839122;29;21265;-82
2022/07/01 09:29:51;;;;;;;1.92;1.10;;;13.70;99.90;;;;;;4838037;29;20046;-81
2022/07/01 09:32:21;;;;;;;0.90;0.90;;;13.60;99.90;;;;;;4837250;29;20049;-85
2022/07/01 09:34:53;;;;;;;1.60;1.00;;;13.50;99.90;;;;;;4842768;29;20057;-81
2022/07/01 09:37:25;;;;;;;1.15;0.93;;;13.50;99.90;;;;;;4840079;29;20050;-84
2022/07/01 09:39:54;;;;;;;1.38;0.90;;;13.50;99.90;;;;;;4838960;29;20046;-82
2022/07/01 09:42:24;;;;;;;2.70;1.00;;;13.50;99.90;;;;;;4855152;29;20049;-82
2022/07/01 09:45:02;;;;;;;1.20;1.10;;;13.50;99.90;;;;;;4841940;29;20054;-83
2022/07/01 09:47:34;;;;;;;1.42;1.33;;;13.50;99.90;;;;;;4831277;29;20053;-83
2022/07/01 09:50:04;;;;;;;1.75;1.65;;;13.50;99.90;;;;;;4840249;29;20054;-83
2022/07/01 09:52:32;;;;;;;1.10;1.08;;;13.40;99.90;;;;;;4854199;29;20052;-84
2022/07/01 09:55:06;;;;;;;1.20;1.10;;;13.40;99.90;;;;;;4841939;29;20049;-85
2022/07/01 09:57:34;;;;;;;1.63;1.53;;;13.30;99.90;;;;;;4824757;29;20061;-82
2022/07/01 10:00:04;;;;;;;2.17;1.95;;;13.20;99.90;;;;;;4832058;29;20050;-82
2022/07/01 10:02:39;;;;;;;1.23;1.13;;;13.20;99.90;;;;;;4840372;29;20050;-83
2022/07/01 10:05:19;;;;;;;1.15;1.10;;;13.20;99.90;;;;;;4839815;29;20056;-88
2022/07/01 10:08:24;;;;;;;1.75;1.48;;;13.20;99.90;;;;;;4843047;29;20069;-84
2022/07/01 10:11:34;;;;;;;1.20;1.10;;;13.20;99.90;;;;;;4848636;29;20516;-86
2022/07/01 10:14:12;;;;;;;1.13;1.13;;;13.10;99.90;;;;;;4833386;29;20402;-83
2022/07/01 10:16:41;;;;;;;1.58;1.48;;;13.20;99.90;;;;;;4837672;29;20038;-80
2022/07/01 10:19:27;;;;;;;0.90;0.90;;;13.20;99.90;;;;;;4838784;29;20050;-80
2022/07/01 10:22:24;;;;;;;1.02;1.02;;;13.20;99.90;;;;;;4853884;29;20045;-81
2022/07/01 10:24:52;;;;;;;;;;;13.20;99.90;;;;;;4840109;29;20049;-81
2022/07/01 10:27:23;;;;;;;1.23;1.02;;;13.10;99.90;;;;;;4821096;29;20690;-82
2022/07/01 10:30:13;;;;;;;1.03;1.03;;;13.00;99.90;;;;;;4841802;29;20045;-83
2022/07/01 10:32:51;;;;;;;1.48;1.13;;;13.00;99.90;;;;;;4825047;29;20054;-81
2022/07/01 10:35:37;;;;;;;5.05;1.80;;;12.90;99.90;;;;;;4839892;29;20160;-82
2022/07/01 10:38:12;;;;;;;1.17;1.08;;;12.90;99.90;;;;;;4835708;29;20054;-82
2022/07/01 10:40:45;;;;;;;1.27;1.17;;;12.80;99.90;;;;;;4835765;29;20073;-82
2022/07/01 10:43:33;;;;;;;0.82;0.82;;;12.80;99.90;;;;;;4839317;29;20058;-82
2022/07/01 10:46:02;;;;;;;1.63;1.05;;;12.70;99.90;;;;;;4835812;29;20066;-82
2022/07/01 10:48:33;;;;;;;1.45;0.95;;;12.60;99.90;;;;;;4843506;29;20050;-80
2022/07/01 10:51:02;;;;;;;1.10;1.00;;;12.60;99.90;;;;;;4841889;29;20437;-83
2022/07/01 10:53:48;;;;;;;1.67;1.15;;;12.60;99.90;;;;;;4843994;29;20049;-82
2022/07/01 10:56:40;;;;;;;1.58;1.33;;;12.70;99.90;;;;;;4838598;29;20499;-83
2022/07/01 10:59:18;;;;;;;1.65;1.55;;;12.70;99.90;;;;;;4851722;29;20046;-81
2022/07/01 11:01:46;;;;;;;2.45;1.45;;;12.70;99.90;;;;;;4825066;29;20062;-82
2022/07/01 11:04:17;;;;;;;3.60;1.10;;;12.80;99.90;;;;;;4839407;29;20429;-81
2022/07/01 11:06:45;;;;;;;1.30;1.20;;;12.90;99.90;;;;;;4825020;29;20050;-82
2022/07/01 11:09:18;;;;;;;1.10;1.10;;;12.90;99.90;;;;;;4823927;29;20055;-81
2022/07/01 11:11:45;;;;;;;1.30;1.20;;;13.00;99.90;;;;;;4824666;29;20055;-81
2022/07/01 11:14:17;;;;;;;4.20;1.65;;;13.00;99.90;;;;;;4844472;29;20060;-82
2022/07/01 11:16:50;;;;;;;1.25;0.88;;;13.00;99.90;;;;;;4873155;29;20062;-82
2022/07/01 11:19:18;;;;;;;2.15;0.90;;;13.00;99.90;;;;;;4842988;29;20058;-83
2022/07/01 11:21:53;;;;;;;1.00;0.90;;;13.10;99.90;;;;;;4841847;29;20065;-82
2022/07/01 11:24:27;;;;;;;3.97;1.05;;;13.10;99.90;;;;;;4842417;29;20053;-81
2022/07/01 11:27:08;;;;;;;1.05;0.95;;;13.10;99.90;;;;;;4841632;29;20046;-82
2022/07/01 11:29:36;;;;;;;0.88;0.88;;;13.10;99.90;;;;;;4841022;29;20046;-82
2022/07/01 11:32:05;;;;;;;0.60;0.60;;;13.10;99.90;;;;;;4841946;29;20054;-80
2022/07/01 11:34:36;;;;;;;0.80;0.80;;;13.00;99.90;;;;;;4825635;29;20045;-82
2022/07/01 11:40:11;;;;;;;1.00;0.90;;;12.90;99.90;;;;;;4838086;29;20050;-79
2022/07/01 11:42:40;;;;;;;1.95;1.00;;;12.90;99.90;;;;;;4841034;29;20065;-80
2022/07/01 11:45:26;;;;;;;1.75;0.90;;;12.90;99.90;;;;;;4841767;29;20396;-80
2022/07/01 11:47:54;;;;;;;;;;;12.90;99.90;;;;;;4840843;29;20053;-80
2022/07/01 11:50:21;;;;;;;0.90;0.90;;;13.00;99.90;;;;;;4840314;29;19932;-80
2022/07/01 11:52:54;;;;;;;2.92;1.17;;;13.00;99.90;;;;;;4854590;29;20058;-80
2022/07/01 11:55:22;;;;;;;1.00;1.00;;;13.20;99.90;;;;;;4853466;29;20089;-80
2022/07/01 11:58:05;;;;;;;2.10;1.38;;;13.30;99.90;;;;;;4841094;29;20054;-82
2022/07/01 12:00:34;;;;;;;1.02;1.00;;;13.30;99.90;;;;;;4841123;29;20042;-80
2022/07/01 12:03:02;;;;;;;1.40;1.30;;;13.30;99.90;;;;;;4859477;29;20050;-84
2022/07/01 12:05:31;;;;;;;1.83;1.45;;;13.30;99.90;;;;;;4856881;29;20053;-79
2022/07/01 12:08:05;;;;;;;2.70;1.70;;;13.20;99.90;;;;;;4841470;29;20046;-80
2022/07/01 12:10:33;;;;;;;0.90;0.90;;;13.20;99.90;;;;;;4855128;29;20050;-79
2022/07/01 12:13:20;;;;;;;1.48;0.93;;;13.10;99.90;;;;;;4840587;29;20046;-79
2022/07/01 12:15:49;;;;;;;2.33;1.10;;;13.10;99.90;;;;;;4840581;29;20257;-79
2022/07/01 12:18:16;;;;;;;1.10;1.00;;;13.00;99.90;;;;;;4824712;29;20046;-79
2022/07/01 12:20:53;;;;;;;1.40;1.30;;;13.20;99.90;;;;;;4841765;29;20061;-80
2022/07/01 12:23:21;;;;;;;1.02;0.90;;;13.30;99.90;;;;;;4841325;29;20061;-81
2022/07/01 12:25:50;;;;;;;1.00;1.00;;;13.40;99.90;;;;;;4851420;29;20065;-79
2022/07/01 12:28:33;;;;;;;1.48;1.38;;;13.60;99.90;;;;;;4854991;29;20057;-79
2022/07/01 12:31:03;;;;;;;0.95;0.93;;;13.60;99.90;;;;;;4821552;29;20073;-82
2022/07/01 12:33:31;;;;;;;1.45;1.25;;;13.70;99.90;;;;;;4862919;29;20057;-77
2022/07/01 12:36:02;;;;;;;1.58;1.42;;;13.80;99.90;;;;;;4853582;29;20062;-80
2022/07/01 12:38:30;;;;;;;1.02;1.02;;;13.80;99.90;;;;;;4837712;29;20508;-78
2022/07/01 12:40:58;;;;;;;0.70;0.70;;;13.60;99.90;;;;;;4853729;29;20053;-79
2022/07/01 12:43:35;;;;;;;1.23;1.13;;;13.40;99.90;;;;;;4853607;29;20428;-79
2022/07/01 12:46:03;;;;;;;1.05;0.95;;;13.40;99.90;;;;;;4853993;29;20057;-79
2022/07/01 12:48:48;;;;;;;1.45;1.35;;;13.30;99.90;;;;;;4853415;29;20058;-81
2022/07/01 12:51:16;;;;;;;1.13;1.10;;;13.40;99.90;;;;;;4854636;29;20046;-79
2022/07/01 12:53:44;;;;;;;1.05;1.05;;;13.40;99.90;;;;;;4840468;29;20049;-81
2022/07/01 12:56:28;;;;;;;1.48;1.38;;;13.40;99.90;;;;;;4824024;29;20054;-79
2022/07/01 12:58:56;;;;;;;2.00;1.20;;;13.50;99.90;;;;;;4852835;29;20073;-80
2022/07/01 13:01:25;;;;;;;1.10;1.00;;;13.30;99.90;;;;;;4839775;29;20404;-79
2022/07/01 13:03:53;;;;;;;1.25;1.13;;;13.40;99.90;;;;;;4839325;29;20058;-78
2022/07/01 13:06:23;;;;;;;1.25;1.15;;;13.40;99.90;;;;;;4854392;29;20053;-80
2022/07/01 13:08:56;;;;;;;1.30;1.02;;;13.30;99.90;;;;;;4839890;29;20050;-81
2022/07/01 13:11:24;;;;;;;1.98;1.70;;;13.30;99.90;;;;;;4839980;29;20050;-80
2022/07/01 13:13:52;;;;;;;2.78;1.25;;;13.20;99.90;;;;;;4836793;29;20054;-80
2022/07/01 13:16:20;;;;;;;1.02;1.02;;;13.30;99.90;;;;;;4840106;29;20050;-80
2022/07/01 13:18:48;;;;;;;1.83;1.73;;;13.30;99.90;;;;;;4840223;29;20116;-80
2022/07/01 13:21:16;;;;;;;4.28;1.90;;;13.30;99.90;;;;;;4839618;29;20061;-79
2022/07/01 13:24:24;;;;;;;1.15;1.15;;;13.30;99.90;;;;;;4855160;29;20050;-81
2022/07/01 13:27:45;;;;;;;0.88;0.88;;;13.20;99.90;;;;;;4824894;29;20058;-82
2022/07/01 13:30:25;;;;;;;2.47;2.28;;;13.20;99.90;;;;;;4816762;29;20801;-81